Time,TemperatureF,DewpointF,PressureIn,WindDirection,WindDirectionDegrees,WindSpeedMPH,WindSpeedGustMPH,Humidity,HourlyPrecipIn,Conditions,Clouds,dailyrainin,SoftwareType,DateUTC
2013-07-09 00:00:00,72.9,13.2,30.04,North,0,0.0,0.0,1,0.00,,,0.03,WUHU216HW,2013-07-09 04:00:00,
2013-07-09 00:01:00,72.9,13.2,30.04,North,0,0.0,0.0,1,0.00,,,0.00,WUHU216HW,2013-07-09 04:01:00,
2013-07-09 00:02:00,72.9,13.2,30.04,North,0,0.0,0.0,1,0.00,,,0.00,WUHU216HW,2013-07-09 04:02:00,
2013-07-09 00:07:00,72.9,13.2,30.04,North,0,0.0,0.0,1,0.00,,,0.00,WUHU216HW,2013-07-09 04:07:00,
2013-07-09 00:12:00,72.9,13.2,30.04,North,0,0.0,0.0,1,0.00,,,0.00,WUHU216HW,2013-07-09 04:12:00,
2013-07-09 00:17:00,73.1,13.4,30.04,North,0,0.0,0.0,1,0.01,,,0.00,WUHU216HW,2013-07-09 04:17:00,
2013-07-09 00:22:00,73.1,13.4,30.04,North,0,0.0,0.0,1,0.14,,,0.15,WUHU216HW,2013-07-09 04:22:00,
2013-07-09 00:27:00,72.9,13.2,30.04,North,0,0.0,0.0,1,0.15,,,0.15,WUHU216HW,2013-07-09 04:27:00,
2013-07-09 00:32:00,72.7,13.2,30.04,North,0,0.0,0.0,1,0.15,,,0.15,WUHU216HW,2013-07-09 04:32:00,
2013-07-09 00:37:00,72.7,13.2,30.04,North,0,0.0,0.0,1,0.15,,,0.15,WUHU216HW,2013-07-09 04:37:00,
2013-07-09 00:42:00,72.5,13.0,30.04,North,0,0.0,0.0,1,0.15,,,0.15,WUHU216HW,2013-07-09 04:42:00,
2013-07-09 00:47:00,72.5,13.0,30.04,North,0,0.0,0.0,1,0.15,,,0.15,WUHU216HW,2013-07-09 04:47:00,
2013-07-09 00:52:00,72.5,13.0,30.03,North,0,0.0,0.0,1,0.15,,,0.15,WUHU216HW,2013-07-09 04:52:00,
2013-07-09 00:57:00,72.4,12.8,30.03,North,0,0.0,0.0,1,0.15,,,0.15,WUHU216HW,2013-07-09 04:57:00,
2013-07-09 01:02:00,72.4,12.8,30.03,North,0,0.0,0.0,1,0.15,,,0.15,WUHU216HW,2013-07-09 05:02:00,
2013-07-09 01:07:00,72.4,12.8,30.03,North,0,0.0,0.0,1,0.15,,,0.15,WUHU216HW,2013-07-09 05:07:00,
2013-07-09 01:12:00,72.4,12.8,30.02,North,0,0.0,0.0,1,0.15,,,0.15,WUHU216HW,2013-07-09 05:12:00,
2013-07-09 01:17:00,72.2,12.7,30.02,North,0,0.0,0.0,1,0.08,,,0.15,WUHU216HW,2013-07-09 05:17:00,
2013-07-09 01:22:00,72.2,12.7,30.02,North,0,0.0,0.0,1,0.00,,,0.15,WUHU216HW,2013-07-09 05:22:00,
2013-07-09 01:27:00,72.2,12.7,30.02,North,0,0.0,0.0,1,0.00,,,0.15,WUHU216HW,2013-07-09 05:27:00,
2013-07-09 01:32:00,72.0,12.5,30.02,North,0,0.0,0.0,1,0.00,,,0.15,WUHU216HW,2013-07-09 05:32:00,
2013-07-09 01:37:00,72.0,12.5,30.02,North,0,0.0,0.0,1,0.00,,,0.15,WUHU216HW,2013-07-09 05:37:00,
2013-07-09 01:42:00,72.0,12.5,30.02,North,0,0.0,0.0,1,0.00,,,0.15,WUHU216HW,2013-07-09 05:42:00,
2013-07-09 01:47:00,72.0,12.5,30.01,North,0,0.0,0.0,1,0.00,,,0.15,WUHU216HW,2013-07-09 05:47:00,
2013-07-09 01:52:00,72.0,12.5,30.01,North,0,0.0,0.0,1,0.00,,,0.15,WUHU216HW,2013-07-09 05:52:00,
2013-07-09 01:57:00,72.0,12.5,30.01,North,0,0.0,0.0,1,0.00,,,0.15,WUHU216HW,2013-07-09 05:57:00,
2013-07-09 02:02:00,71.8,12.4,30.01,North,0,0.0,0.0,1,0.00,,,0.15,WUHU216HW,2013-07-09 06:02:00,
2013-07-09 02:07:00,71.8,12.4,30.01,North,0,0.0,0.0,1,0.00,,,0.15,WUHU216HW,2013-07-09 06:07:00,
2013-07-09 02:12:00,71.8,12.4,30.01,North,0,0.0,0.0,1,0.00,,,0.15,WUHU216HW,2013-07-09 06:12:00,
2013-07-09 02:17:00,71.6,12.2,30.01,North,0,0.0,0.0,1,0.00,,,0.15,WUHU216HW,2013-07-09 06:17:00,
2013-07-09 02:22:00,71.6,12.2,30.01,North,0,0.0,0.0,1,0.00,,,0.15,WUHU216HW,2013-07-09 06:22:00,
2013-07-09 02:27:00,71.6,12.2,30.01,North,0,0.0,0.0,1,0.00,,,0.15,WUHU216HW,2013-07-09 06:27:00,
2013-07-09 02:32:00,71.6,12.2,30.01,North,0,0.0,0.0,1,0.00,,,0.15,WUHU216HW,2013-07-09 06:32:00,
2013-07-09 02:37:00,71.6,12.2,30.01,North,0,0.0,0.0,1,0.00,,,0.15,WUHU216HW,2013-07-09 06:37:00,
2013-07-09 02:42:00,71.6,12.2,30.01,North,0,0.0,0.0,1,0.00,,,0.15,WUHU216HW,2013-07-09 06:42:00,
2013-07-09 02:47:00,71.6,12.2,30.01,North,0,0.0,0.0,1,0.00,,,0.15,WUHU216HW,2013-07-09 06:47:00,
2013-07-09 02:52:00,71.6,12.2,30.01,North,0,0.0,0.0,1,0.00,,,0.15,WUHU216HW,2013-07-09 06:52:00,
2013-07-09 02:57:00,71.6,12.2,30.01,North,0,0.0,0.0,1,0.00,,,0.15,WUHU216HW,2013-07-09 06:57:00,
2013-07-09 03:02:00,71.6,12.2,30.01,North,0,0.0,0.0,1,0.00,,,0.15,WUHU216HW,2013-07-09 07:02:00,
2013-07-09 03:07:00,71.6,12.2,30.01,North,0,0.0,0.0,1,0.00,,,0.15,WUHU216HW,2013-07-09 07:07:00,
2013-07-09 03:12:00,71.6,12.2,30.01,North,0,0.0,0.0,1,0.00,,,0.15,WUHU216HW,2013-07-09 07:12:00,
2013-07-09 03:17:00,71.8,12.4,30.01,North,0,0.0,0.0,1,0.00,,,0.15,WUHU216HW,2013-07-09 07:17:00,
2013-07-09 03:22:00,71.6,12.2,30.01,North,0,0.0,0.0,1,0.00,,,0.15,WUHU216HW,2013-07-09 07:22:00,
2013-07-09 03:27:00,71.8,12.4,30.01,North,0,0.0,0.0,1,0.00,,,0.15,WUHU216HW,2013-07-09 07:27:00,
2013-07-09 03:32:00,71.8,12.4,30.01,North,0,0.0,0.0,1,0.00,,,0.15,WUHU216HW,2013-07-09 07:32:00,
2013-07-09 03:37:00,71.8,12.4,30.01,North,0,0.0,0.0,1,0.00,,,0.15,WUHU216HW,2013-07-09 07:37:00,
2013-07-09 03:42:00,71.8,12.4,30.01,North,0,0.0,0.0,1,0.00,,,0.15,WUHU216HW,2013-07-09 07:42:00,
2013-07-09 03:47:00,71.8,12.4,30.01,North,0,0.0,0.0,1,0.00,,,0.15,WUHU216HW,2013-07-09 07:47:00,
2013-07-09 03:52:00,71.8,12.4,30.01,North,0,0.0,0.0,1,0.00,,,0.15,WUHU216HW,2013-07-09 07:52:00,
2013-07-09 03:57:00,71.8,12.4,30.01,North,0,0.0,0.0,1,0.00,,,0.15,WUHU216HW,2013-07-09 07:57:00,
2013-07-09 04:02:00,71.8,12.4,30.01,North,0,0.0,0.0,1,0.00,,,0.15,WUHU216HW,2013-07-09 08:02:00,
2013-07-09 04:07:00,71.8,12.4,30.01,North,0,0.0,0.0,1,0.00,,,0.15,WUHU216HW,2013-07-09 08:07:00,
2013-07-09 04:12:00,71.8,12.4,30.01,North,0,0.0,0.0,1,0.00,,,0.15,WUHU216HW,2013-07-09 08:12:00,
2013-07-09 04:17:00,71.8,12.4,30.02,North,0,0.0,0.0,1,0.00,,,0.15,WUHU216HW,2013-07-09 08:17:00,
2013-07-09 04:22:00,71.6,12.2,30.02,North,0,0.0,0.0,1,0.00,,,0.15,WUHU216HW,2013-07-09 08:22:00,
2013-07-09 04:27:00,71.8,12.4,30.02,North,0,0.0,0.0,1,0.00,,,0.15,WUHU216HW,2013-07-09 08:27:00,
2013-07-09 04:32:00,71.8,12.4,30.02,North,0,0.0,0.0,1,0.00,,,0.15,WUHU216HW,2013-07-09 08:32:00,
2013-07-09 04:37:00,71.8,12.4,30.02,North,0,0.0,0.0,1,0.00,,,0.15,WUHU216HW,2013-07-09 08:37:00,
2013-07-09 04:42:00,71.8,12.4,30.01,North,0,0.0,0.0,1,0.00,,,0.15,WUHU216HW,2013-07-09 08:42:00,
2013-07-09 04:47:00,71.8,12.4,30.01,North,0,0.0,0.0,1,0.00,,,0.15,WUHU216HW,2013-07-09 08:47:00,
2013-07-09 04:52:00,71.8,12.4,30.01,North,0,0.0,0.0,1,0.00,,,0.15,WUHU216HW,2013-07-09 08:52:00,
2013-07-09 04:57:00,71.8,12.4,30.01,North,0,0.0,0.0,1,0.00,,,0.15,WUHU216HW,2013-07-09 08:57:00,
2013-07-09 05:02:00,71.8,12.4,30.01,North,0,0.0,0.0,1,0.00,,,0.15,WUHU216HW,2013-07-09 09:02:00,
2013-07-09 05:07:00,71.6,12.2,30.01,North,0,0.0,0.0,1,0.00,,,0.15,WUHU216HW,2013-07-09 09:07:00,
2013-07-09 05:12:00,71.6,12.2,30.01,North,0,0.0,0.0,1,0.00,,,0.15,WUHU216HW,2013-07-09 09:12:00,
2013-07-09 05:17:00,71.6,12.2,30.01,North,0,0.0,0.0,1,0.00,,,0.15,WUHU216HW,2013-07-09 09:17:00,
2013-07-09 05:22:00,71.6,12.2,30.01,North,0,0.0,0.0,1,0.00,,,0.15,WUHU216HW,2013-07-09 09:22:00,
2013-07-09 05:27:00,71.6,12.2,30.01,North,0,0.0,0.0,1,0.00,,,0.15,WUHU216HW,2013-07-09 09:27:00,
2013-07-09 05:32:00,71.6,12.2,30.01,North,0,0.0,0.0,1,0.00,,,0.15,WUHU216HW,2013-07-09 09:32:00,
2013-07-09 05:37:00,71.6,12.2,30.01,North,0,0.0,0.0,1,0.00,,,0.15,WUHU216HW,2013-07-09 09:37:00,
2013-07-09 05:42:00,71.6,12.2,30.01,North,0,0.0,0.0,1,0.00,,,0.15,WUHU216HW,2013-07-09 09:42:00,
2013-07-09 05:47:00,71.5,12.1,30.01,North,0,0.0,0.0,1,0.00,,,0.15,WUHU216HW,2013-07-09 09:47:00,
2013-07-09 05:52:00,71.5,12.1,30.01,North,0,0.0,0.0,1,0.00,,,0.15,WUHU216HW,2013-07-09 09:52:00,
2013-07-09 05:57:00,71.5,12.1,30.01,North,0,0.0,0.0,1,0.00,,,0.15,WUHU216HW,2013-07-09 09:57:00,
2013-07-09 06:02:00,71.3,12.0,30.01,North,0,0.0,0.0,1,0.00,,,0.15,WUHU216HW,2013-07-09 10:02:00,
2013-07-09 06:07:00,71.3,12.0,30.01,North,0,0.0,0.0,1,0.00,,,0.15,WUHU216HW,2013-07-09 10:07:00,
2013-07-09 06:12:00,71.3,12.0,30.01,North,0,0.0,0.0,1,0.00,,,0.15,WUHU216HW,2013-07-09 10:12:00,
2013-07-09 06:17:00,71.3,12.0,30.01,North,0,0.0,0.0,1,0.00,,,0.15,WUHU216HW,2013-07-09 10:17:00,
2013-07-09 06:22:00,71.3,12.0,30.01,North,0,0.0,0.0,1,0.00,,,0.15,WUHU216HW,2013-07-09 10:22:00,
2013-07-09 06:27:00,71.1,11.8,30.01,North,0,0.0,0.0,1,0.00,,,0.15,WUHU216HW,2013-07-09 10:27:00,
2013-07-09 06:32:00,71.1,11.8,30.01,North,0,0.0,0.0,1,0.00,,,0.15,WUHU216HW,2013-07-09 10:32:00,
2013-07-09 06:37:00,71.1,11.8,30.02,North,0,0.0,0.0,1,0.00,,,0.15,WUHU216HW,2013-07-09 10:37:00,
2013-07-09 06:42:00,70.9,11.7,30.01,North,0,0.0,0.0,1,0.00,,,0.15,WUHU216HW,2013-07-09 10:42:00,
2013-07-09 06:47:00,70.9,11.7,30.01,North,0,0.0,0.0,1,0.00,,,0.15,WUHU216HW,2013-07-09 10:47:00,
2013-07-09 06:52:00,70.9,11.7,30.01,North,0,0.0,0.0,1,0.00,,,0.15,WUHU216HW,2013-07-09 10:52:00,
2013-07-09 06:57:00,70.9,11.7,30.02,North,0,0.0,0.0,1,0.00,,,0.15,WUHU216HW,2013-07-09 10:57:00,
2013-07-09 07:02:00,70.9,11.7,30.02,North,0,0.0,0.0,1,0.00,,,0.15,WUHU216HW,2013-07-09 11:02:00,
2013-07-09 07:07:00,70.9,11.7,30.02,North,0,0.0,0.0,1,0.00,,,0.15,WUHU216HW,2013-07-09 11:07:00,
2013-07-09 07:12:00,71.1,11.8,30.02,North,0,0.0,0.0,1,0.00,,,0.15,WUHU216HW,2013-07-09 11:12:00,
2013-07-09 07:17:00,71.1,11.8,30.02,North,0,0.0,0.0,1,0.00,,,0.15,WUHU216HW,2013-07-09 11:17:00,
2013-07-09 07:22:00,71.3,12.0,30.02,North,0,0.0,0.0,1,0.00,,,0.15,WUHU216HW,2013-07-09 11:22:00,
2013-07-09 07:27:00,71.3,12.0,30.02,North,0,0.0,0.0,1,0.00,,,0.15,WUHU216HW,2013-07-09 11:27:00,
2013-07-09 07:32:00,71.5,12.1,30.02,North,0,0.0,0.0,1,0.00,,,0.15,WUHU216HW,2013-07-09 11:32:00,
2013-07-09 07:37:00,71.6,12.2,30.02,North,0,0.0,0.0,1,0.00,,,0.15,WUHU216HW,2013-07-09 11:37:00,
2013-07-09 07:42:00,71.6,12.2,30.03,North,0,0.0,0.0,1,0.00,,,0.15,WUHU216HW,2013-07-09 11:42:00,
2013-07-09 07:47:00,71.8,12.4,30.02,North,0,0.0,0.0,1,0.00,,,0.15,WUHU216HW,2013-07-09 11:47:00,
2013-07-09 07:52:00,71.8,12.4,30.02,North,0,0.0,0.0,1,0.00,,,0.15,WUHU216HW,2013-07-09 11:52:00,
2013-07-09 07:57:00,72.0,12.5,30.02,North,0,0.0,0.0,1,0.00,,,0.15,WUHU216HW,2013-07-09 11:57:00,
2013-07-09 08:02:00,72.0,12.5,30.03,North,0,0.0,0.0,1,0.00,,,0.15,WUHU216HW,2013-07-09 12:02:00,
2013-07-09 08:07:00,72.0,12.5,30.03,North,0,0.0,0.0,1,0.00,,,0.15,WUHU216HW,2013-07-09 12:07:00,
2013-07-09 08:12:00,72.2,12.7,30.03,North,0,0.0,0.0,1,0.00,,,0.15,WUHU216HW,2013-07-09 12:12:00,
2013-07-09 08:17:00,72.4,12.8,30.03,North,0,0.0,0.0,1,0.00,,,0.15,WUHU216HW,2013-07-09 12:17:00,
2013-07-09 08:22:00,72.2,12.7,30.03,North,0,0.0,0.0,1,0.00,,,0.15,WUHU216HW,2013-07-09 12:22:00,
2013-07-09 08:27:00,72.2,12.7,30.03,North,0,0.0,0.0,1,0.00,,,0.15,WUHU216HW,2013-07-09 12:27:00,
2013-07-09 08:32:00,72.4,12.8,30.03,North,0,0.0,0.0,1,0.00,,,0.15,WUHU216HW,2013-07-09 12:32:00,
2013-07-09 08:37:00,72.4,12.8,30.03,North,0,0.0,0.0,1,0.00,,,0.15,WUHU216HW,2013-07-09 12:37:00,
2013-07-09 08:42:00,72.4,12.8,30.03,North,0,0.0,0.0,1,0.00,,,0.15,WUHU216HW,2013-07-09 12:42:00,
2013-07-09 08:47:00,72.5,13.0,30.03,North,0,0.0,0.0,1,0.00,,,0.15,WUHU216HW,2013-07-09 12:47:00,
2013-07-09 08:52:00,72.5,13.0,30.03,North,0,0.0,0.0,1,0.00,,,0.15,WUHU216HW,2013-07-09 12:52:00,
2013-07-09 08:57:00,72.7,13.2,30.04,North,0,0.0,0.0,1,0.00,,,0.15,WUHU216HW,2013-07-09 12:57:00,
2013-07-09 09:02:00,72.5,13.0,30.04,North,0,0.0,0.0,1,0.00,,,0.15,WUHU216HW,2013-07-09 13:02:00,
2013-07-09 09:07:00,72.7,13.2,30.04,North,0,0.0,0.0,1,0.00,,,0.15,WUHU216HW,2013-07-09 13:07:00,
2013-07-09 09:12:00,72.7,13.2,30.04,North,0,0.0,0.0,1,0.00,,,0.15,WUHU216HW,2013-07-09 13:12:00,
2013-07-09 09:17:00,72.9,13.2,30.04,North,0,0.0,0.0,1,0.00,,,0.15,WUHU216HW,2013-07-09 13:17:00,
2013-07-09 09:22:00,72.9,13.2,30.04,North,0,0.0,0.0,1,0.00,,,0.15,WUHU216HW,2013-07-09 13:22:00,
2013-07-09 09:27:00,73.1,13.4,30.04,North,0,0.0,0.0,1,0.00,,,0.15,WUHU216HW,2013-07-09 13:27:00,
2013-07-09 09:32:00,73.1,13.4,30.04,North,0,0.0,0.0,1,0.00,,,0.15,WUHU216HW,2013-07-09 13:32:00,
2013-07-09 09:37:00,73.3,13.5,30.04,North,0,0.0,0.0,1,0.00,,,0.15,WUHU216HW,2013-07-09 13:37:00,
2013-07-09 09:42:00,73.4,13.7,30.04,North,0,0.0,0.0,1,0.00,,,0.15,WUHU216HW,2013-07-09 13:42:00,
2013-07-09 09:47:00,73.8,14.0,30.04,North,0,0.0,0.0,1,0.00,,,0.15,WUHU216HW,2013-07-09 13:47:00,
2013-07-09 09:52:00,74.0,14.0,30.04,North,0,0.0,0.0,1,0.00,,,0.15,WUHU216HW,2013-07-09 13:52:00,
2013-07-09 09:57:00,74.5,14.4,30.04,North,0,0.0,0.0,1,0.00,,,0.15,WUHU216HW,2013-07-09 13:57:00,
2013-07-09 10:02:00,74.9,14.7,30.04,North,0,0.0,0.0,1,0.00,,,0.15,WUHU216HW,2013-07-09 14:02:00,
2013-07-09 10:07:00,74.9,14.7,30.03,North,0,0.0,0.0,1,0.00,,,0.15,WUHU216HW,2013-07-09 14:07:00,
2013-07-09 10:12:00,75.2,14.9,30.03,North,0,0.0,0.0,1,0.00,,,0.15,WUHU216HW,2013-07-09 14:12:00,
2013-07-09 10:17:00,75.2,14.9,30.03,North,0,0.0,0.0,1,0.00,,,0.15,WUHU216HW,2013-07-09 14:17:00,
2013-07-09 10:22:00,75.2,14.9,30.03,North,0,0.0,0.0,1,0.00,,,0.15,WUHU216HW,2013-07-09 14:22:00,
2013-07-09 10:27:00,75.8,15.4,30.03,North,0,0.0,0.0,1,0.00,,,0.15,WUHU216HW,2013-07-09 14:27:00,
2013-07-09 10:32:00,76.1,15.7,30.03,North,0,0.0,0.0,1,0.00,,,0.15,WUHU216HW,2013-07-09 14:32:00,
2013-07-09 10:37:00,76.1,15.7,30.03,North,0,0.0,0.0,1,0.00,,,0.15,WUHU216HW,2013-07-09 14:37:00,
2013-07-09 10:42:00,76.1,15.7,30.03,North,0,0.0,0.0,1,0.00,,,0.15,WUHU216HW,2013-07-09 14:42:00,
2013-07-09 10:47:00,76.3,15.9,30.03,North,0,0.0,0.0,1,0.00,,,0.15,WUHU216HW,2013-07-09 14:47:00,
2013-07-09 10:52:00,76.5,15.9,30.03,North,0,0.0,0.0,1,0.00,,,0.15,WUHU216HW,2013-07-09 14:52:00,
2013-07-09 10:57:00,76.5,15.9,30.03,North,0,0.0,0.0,1,0.00,,,0.15,WUHU216HW,2013-07-09 14:57:00,
2013-07-09 11:02:00,76.9,16.2,30.03,North,0,0.0,0.0,1,0.00,,,0.15,WUHU216HW,2013-07-09 15:02:00,
2013-07-09 11:07:00,77.0,16.4,30.03,North,0,0.0,0.0,1,0.00,,,0.15,WUHU216HW,2013-07-09 15:07:00,
2013-07-09 11:12:00,77.4,16.7,30.03,North,0,0.0,0.0,1,0.00,,,0.15,WUHU216HW,2013-07-09 15:12:00,
2013-07-09 11:17:00,77.8,16.9,30.03,North,0,0.0,0.0,1,0.00,,,0.15,WUHU216HW,2013-07-09 15:17:00,
2013-07-09 11:22:00,78.1,17.1,30.03,North,0,0.0,0.0,1,0.00,,,0.15,WUHU216HW,2013-07-09 15:22:00,
2013-07-09 11:27:00,78.7,17.6,30.03,North,0,0.0,0.0,1,0.00,,,0.15,WUHU216HW,2013-07-09 15:27:00,
2013-07-09 11:32:00,78.8,17.6,30.03,North,0,0.0,0.0,1,0.00,,,0.15,WUHU216HW,2013-07-09 15:32:00,
2013-07-09 11:37:00,79.2,17.9,30.03,North,0,0.0,0.0,1,0.00,,,0.15,WUHU216HW,2013-07-09 15:37:00,
2013-07-09 11:42:00,79.6,18.2,30.03,North,0,0.0,0.0,1,0.00,,,0.15,WUHU216HW,2013-07-09 15:42:00,
2013-07-09 11:47:00,79.9,18.6,30.03,North,0,0.0,0.0,1,0.00,,,0.15,WUHU216HW,2013-07-09 15:47:00,
2013-07-09 11:52:00,79.9,18.6,30.02,North,0,0.0,0.0,1,0.00,,,0.15,WUHU216HW,2013-07-09 15:52:00,
2013-07-09 11:57:00,80.1,18.6,30.02,North,0,0.0,0.0,1,0.00,,,0.15,WUHU216HW,2013-07-09 15:57:00,
2013-07-09 12:02:00,80.3,18.8,30.03,North,0,0.0,0.0,1,0.00,,,0.15,WUHU216HW,2013-07-09 16:02:00,
2013-07-09 12:07:00,80.6,19.1,30.03,North,0,0.0,0.0,1,0.00,,,0.15,WUHU216HW,2013-07-09 16:07:00,
2013-07-09 12:12:00,81.0,19.4,30.03,North,0,0.0,0.0,1,0.00,,,0.15,WUHU216HW,2013-07-09 16:12:00,
2013-07-09 12:17:00,81.4,19.6,30.03,North,0,0.0,0.0,1,0.00,,,0.15,WUHU216HW,2013-07-09 16:17:00,
2013-07-09 12:22:00,81.4,19.6,30.03,North,0,0.0,0.0,1,0.00,,,0.15,WUHU216HW,2013-07-09 16:22:00,
2013-07-09 12:27:00,81.9,20.1,30.03,North,0,0.0,0.0,1,0.00,,,0.15,WUHU216HW,2013-07-09 16:27:00,
2013-07-09 12:32:00,82.3,20.3,30.03,North,0,0.0,0.0,1,0.00,,,0.15,WUHU216HW,2013-07-09 16:32:00,
2013-07-09 12:37:00,82.4,20.5,30.03,North,0,0.0,0.0,1,0.00,,,0.15,WUHU216HW,2013-07-09 16:37:00,
2013-07-09 12:42:00,82.8,20.8,30.03,North,0,0.0,0.0,1,0.00,,,0.15,WUHU216HW,2013-07-09 16:42:00,
2013-07-09 12:47:00,83.0,20.9,30.03,North,0,0.0,0.0,1,0.00,,,0.15,WUHU216HW,2013-07-09 16:47:00,
2013-07-09 12:52:00,82.8,20.8,30.02,North,0,0.0,0.0,1,0.00,,,0.15,WUHU216HW,2013-07-09 16:52:00,
2013-07-09 12:57:00,83.0,20.9,30.02,North,0,0.0,0.0,1,0.00,,,0.15,WUHU216HW,2013-07-09 16:57:00,
2013-07-09 13:02:00,83.2,21.1,30.02,North,0,0.0,0.0,1,0.00,,,0.15,WUHU216HW,2013-07-09 17:02:00,
2013-07-09 13:07:00,83.5,21.2,30.02,North,0,0.0,0.0,1,0.00,,,0.15,WUHU216HW,2013-07-09 17:07:00,
2013-07-09 13:12:00,83.7,21.4,30.01,North,0,0.0,0.0,1,0.00,,,0.15,WUHU216HW,2013-07-09 17:12:00,
2013-07-09 13:17:00,83.9,21.5,30.01,North,0,0.0,0.0,1,0.00,,,0.15,WUHU216HW,2013-07-09 17:17:00,
2013-07-09 13:22:00,84.1,21.7,30.01,North,0,0.0,0.0,1,0.00,,,0.15,WUHU216HW,2013-07-09 17:22:00,
2013-07-09 13:27:00,84.6,22.1,30.01,North,0,0.0,0.0,1,0.00,,,0.15,WUHU216HW,2013-07-09 17:27:00,
2013-07-09 13:32:00,84.6,22.1,30.01,North,0,0.0,0.0,1,0.00,,,0.15,WUHU216HW,2013-07-09 17:32:00,
2013-07-09 13:37:00,84.6,22.1,30.01,North,0,0.0,0.0,1,0.00,,,0.15,WUHU216HW,2013-07-09 17:37:00,
2013-07-09 13:42:00,84.8,22.2,30.00,North,0,0.0,0.0,1,0.00,,,0.15,WUHU216HW,2013-07-09 17:42:00,
2013-07-09 13:47:00,84.8,22.2,30.01,North,0,0.0,0.0,1,0.00,,,0.15,WUHU216HW,2013-07-09 17:47:00,
2013-07-09 13:52:00,85.0,22.3,30.00,North,0,0.0,0.0,1,0.00,,,0.15,WUHU216HW,2013-07-09 17:52:00,
2013-07-09 13:57:00,85.5,22.8,30.00,North,0,0.0,0.0,1,0.00,,,0.15,WUHU216HW,2013-07-09 17:57:00,
2013-07-09 14:02:00,85.5,22.8,30.00,North,0,0.0,0.0,1,0.00,,,0.15,WUHU216HW,2013-07-09 18:02:00,
2013-07-09 14:07:00,85.7,23.0,30.00,North,0,0.0,0.0,1,0.00,,,0.15,WUHU216HW,2013-07-09 18:07:00,
2013-07-09 14:12:00,85.7,23.0,30.00,North,0,0.0,0.0,1,0.00,,,0.15,WUHU216HW,2013-07-09 18:12:00,
2013-07-09 14:17:00,85.9,23.0,30.00,North,0,0.0,0.0,1,0.00,,,0.15,WUHU216HW,2013-07-09 18:17:00,
2013-07-09 14:22:00,86.0,23.2,30.00,North,0,0.0,0.0,1,0.00,,,0.15,WUHU216HW,2013-07-09 18:22:00,
2013-07-09 14:27:00,86.0,23.2,30.00,North,0,0.0,0.0,1,0.00,,,0.15,WUHU216HW,2013-07-09 18:27:00,
2013-07-09 14:32:00,86.4,23.5,30.00,North,0,0.0,0.0,1,0.00,,,0.15,WUHU216HW,2013-07-09 18:32:00,
2013-07-09 14:37:00,86.2,23.4,30.00,North,0,0.0,0.0,1,0.00,,,0.15,WUHU216HW,2013-07-09 18:37:00,
2013-07-09 14:42:00,86.2,23.4,30.00,North,0,0.0,0.0,1,0.00,,,0.15,WUHU216HW,2013-07-09 18:42:00,
2013-07-09 14:47:00,86.6,23.7,29.99,North,0,0.0,0.0,1,0.00,,,0.15,WUHU216HW,2013-07-09 18:47:00,
2013-07-09 14:52:00,86.4,23.5,29.99,North,0,0.0,0.0,1,0.00,,,0.15,WUHU216HW,2013-07-09 18:52:00,
2013-07-09 14:57:00,86.4,23.5,29.99,North,0,0.0,0.0,1,0.00,,,0.15,WUHU216HW,2013-07-09 18:57:00,
2013-07-09 15:02:00,86.2,23.4,29.99,North,0,0.0,0.0,1,0.00,,,0.15,WUHU216HW,2013-07-09 19:02:00,
2013-07-09 15:07:00,86.0,23.2,29.99,North,0,0.0,0.0,1,0.00,,,0.15,WUHU216HW,2013-07-09 19:07:00,
2013-07-09 15:12:00,85.7,23.0,29.98,North,0,0.0,0.0,1,0.00,,,0.15,WUHU216HW,2013-07-09 19:12:00,
2013-07-09 15:17:00,86.0,23.2,29.98,North,0,0.0,0.0,1,0.00,,,0.15,WUHU216HW,2013-07-09 19:17:00,
2013-07-09 15:22:00,86.4,23.5,29.98,North,0,0.0,0.0,1,0.00,,,0.15,WUHU216HW,2013-07-09 19:22:00,
2013-07-09 15:27:00,86.8,23.8,29.98,North,0,0.0,0.0,1,0.00,,,0.15,WUHU216HW,2013-07-09 19:27:00,
2013-07-09 15:32:00,86.8,23.8,29.98,North,0,0.0,0.0,1,0.00,,,0.15,WUHU216HW,2013-07-09 19:32:00,
2013-07-09 15:37:00,86.4,23.5,29.98,North,0,0.0,0.0,1,0.00,,,0.15,WUHU216HW,2013-07-09 19:37:00,
2013-07-09 15:42:00,86.4,23.5,29.97,North,0,0.0,0.0,1,0.00,,,0.15,WUHU216HW,2013-07-09 19:42:00,
2013-07-09 15:47:00,86.6,23.7,29.97,North,0,0.0,0.0,1,0.00,,,0.15,WUHU216HW,2013-07-09 19:47:00,
2013-07-09 15:52:00,86.8,23.8,29.97,North,0,0.0,0.0,1,0.00,,,0.15,WUHU216HW,2013-07-09 19:52:00,
2013-07-09 15:57:00,86.8,23.8,29.97,North,0,0.0,0.0,1,0.00,,,0.15,WUHU216HW,2013-07-09 19:57:00,
2013-07-09 16:02:00,86.8,23.8,29.97,North,0,0.0,0.0,1,0.00,,,0.15,WUHU216HW,2013-07-09 20:02:00,
2013-07-09 16:07:00,86.6,23.7,29.97,North,0,0.0,0.0,1,0.00,,,0.15,WUHU216HW,2013-07-09 20:07:00,
2013-07-09 16:12:00,86.4,23.5,29.97,North,0,0.0,0.0,1,0.00,,,0.15,WUHU216HW,2013-07-09 20:12:00,
2013-07-09 16:17:00,86.4,23.5,29.97,North,0,0.0,0.0,1,0.00,,,0.15,WUHU216HW,2013-07-09 20:17:00,
2013-07-09 16:22:00,86.4,23.5,29.97,North,0,0.0,0.0,1,0.00,,,0.15,WUHU216HW,2013-07-09 20:22:00,
2013-07-09 16:27:00,86.0,23.2,29.97,North,0,0.0,0.0,1,0.00,,,0.15,WUHU216HW,2013-07-09 20:27:00,
2013-07-09 16:32:00,86.0,23.2,29.97,North,0,0.0,0.0,1,0.00,,,0.15,WUHU216HW,2013-07-09 20:32:00,
2013-07-09 16:37:00,86.2,23.4,29.97,North,0,0.0,0.0,1,0.00,,,0.15,WUHU216HW,2013-07-09 20:37:00,
2013-07-09 16:42:00,86.4,23.5,29.97,North,0,0.0,0.0,1,0.00,,,0.15,WUHU216HW,2013-07-09 20:42:00,
2013-07-09 16:47:00,86.4,23.5,29.97,North,0,0.0,0.0,1,0.00,,,0.15,WUHU216HW,2013-07-09 20:47:00,
2013-07-09 16:52:00,86.2,23.4,29.97,North,0,0.0,0.0,1,0.00,,,0.15,WUHU216HW,2013-07-09 20:52:00,
2013-07-09 16:57:00,86.0,23.2,29.96,North,0,0.0,0.0,1,0.00,,,0.15,WUHU216HW,2013-07-09 20:57:00,
2013-07-09 17:02:00,85.7,23.0,29.97,North,0,0.0,0.0,1,0.00,,,0.15,WUHU216HW,2013-07-09 21:02:00,
2013-07-09 17:07:00,85.1,22.5,29.97,North,0,0.0,0.0,1,0.00,,,0.15,WUHU216HW,2013-07-09 21:07:00,
2013-07-09 17:12:00,84.2,21.8,29.98,North,0,0.0,0.0,1,0.03,,,0.17,WUHU216HW,2013-07-09 21:12:00,
2013-07-09 17:17:00,83.0,20.9,29.97,North,0,0.0,0.0,1,0.16,,,0.28,WUHU216HW,2013-07-09 21:17:00,
2013-07-09 17:22:00,81.5,19.8,29.97,North,0,0.0,0.0,1,0.18,,,0.34,WUHU216HW,2013-07-09 21:22:00,
2013-07-09 17:27:00,80.6,19.1,29.97,North,0,0.0,0.0,1,0.18,,,0.34,WUHU216HW,2013-07-09 21:27:00,
2013-07-09 17:32:00,79.7,18.4,29.98,North,0,0.0,0.0,1,0.18,,,0.34,WUHU216HW,2013-07-09 21:32:00,
2013-07-09 17:37:00,78.8,17.6,29.97,North,0,0.0,0.0,1,0.18,,,0.34,WUHU216HW,2013-07-09 21:37:00,
2013-07-09 17:42:00,78.1,17.1,29.97,North,0,0.0,0.0,1,0.18,,,0.34,WUHU216HW,2013-07-09 21:42:00,
2013-07-09 17:47:00,77.8,16.9,29.98,North,0,0.0,0.0,1,0.19,,,0.35,WUHU216HW,2013-07-09 21:47:00,
2013-07-09 17:52:00,77.4,16.7,30.00,North,0,0.0,0.0,1,0.19,,,0.35,WUHU216HW,2013-07-09 21:52:00,
2013-07-09 17:57:00,77.2,16.5,30.00,North,0,0.0,0.0,1,0.19,,,0.35,WUHU216HW,2013-07-09 21:57:00,
2013-07-09 18:02:00,77.0,16.4,29.98,North,0,0.0,0.0,1,0.19,,,0.35,WUHU216HW,2013-07-09 22:02:00,
2013-07-09 18:07:00,76.7,16.1,29.98,North,0,0.0,0.0,1,0.19,,,0.35,WUHU216HW,2013-07-09 22:07:00,
2013-07-09 18:12:00,76.5,15.9,29.98,North,0,0.0,0.0,1,0.07,,,0.35,WUHU216HW,2013-07-09 22:12:00,
2013-07-09 18:17:00,76.1,15.7,29.98,North,0,0.0,0.0,1,0.01,,,0.35,WUHU216HW,2013-07-09 22:17:00,
2013-07-09 18:22:00,76.0,15.5,29.98,North,0,0.0,0.0,1,0.01,,,0.35,WUHU216HW,2013-07-09 22:22:00,
2013-07-09 18:27:00,76.0,15.5,29.99,North,0,0.0,0.0,1,0.01,,,0.35,WUHU216HW,2013-07-09 22:27:00,
2013-07-09 18:32:00,76.0,15.5,29.98,North,0,0.0,0.0,1,0.01,,,0.35,WUHU216HW,2013-07-09 22:32:00,
2013-07-09 18:37:00,76.0,15.5,29.98,North,0,0.0,0.0,1,0.02,,,0.36,WUHU216HW,2013-07-09 22:37:00,
2013-07-09 18:42:00,75.6,15.2,29.97,North,0,0.0,0.0,1,0.01,,,0.36,WUHU216HW,2013-07-09 22:42:00,
2013-07-09 18:47:00,75.4,15.1,29.97,North,0,0.0,0.0,1,0.02,,,0.36,WUHU216HW,2013-07-09 22:47:00,
2013-07-09 18:52:00,75.2,14.9,29.97,North,0,0.0,0.0,1,0.03,,,0.37,WUHU216HW,2013-07-09 22:52:00,
2013-07-09 18:57:00,75.1,14.9,29.97,North,0,0.0,0.0,1,0.03,,,0.38,WUHU216HW,2013-07-09 22:57:00,
2013-07-09 19:02:00,74.9,14.7,29.97,North,0,0.0,0.0,1,0.04,,,0.39,WUHU216HW,2013-07-09 23:02:00,
2013-07-09 19:07:00,74.9,14.7,29.96,North,0,0.0,0.0,1,0.04,,,0.39,WUHU216HW,2013-07-09 23:07:00,
2013-07-09 19:12:00,74.7,14.6,29.96,North,0,0.0,0.0,1,0.05,,,0.40,WUHU216HW,2013-07-09 23:12:00,
2013-07-09 19:17:00,74.7,14.6,29.95,North,0,0.0,0.0,1,0.05,,,0.40,WUHU216HW,2013-07-09 23:17:00,
2013-07-09 19:22:00,74.5,14.4,29.95,North,0,0.0,0.0,1,0.06,,,0.41,WUHU216HW,2013-07-09 23:22:00,
2013-07-09 19:27:00,74.5,14.4,29.94,North,0,0.0,0.0,1,0.06,,,0.41,WUHU216HW,2013-07-09 23:27:00,
2013-07-09 19:32:00,74.5,14.4,29.94,North,0,0.0,0.0,1,0.06,,,0.41,WUHU216HW,2013-07-09 23:32:00,
2013-07-09 19:37:00,74.3,14.3,29.94,North,0,0.0,0.0,1,0.06,,,0.42,WUHU216HW,2013-07-09 23:37:00,
2013-07-09 19:42:00,74.3,14.3,29.94,North,0,0.0,0.0,1,0.06,,,0.42,WUHU216HW,2013-07-09 23:42:00,
2013-07-09 19:47:00,74.2,14.2,29.94,North,0,0.0,0.0,1,0.05,,,0.42,WUHU216HW,2013-07-09 23:47:00,
2013-07-09 19:52:00,74.2,14.2,29.93,North,0,0.0,0.0,1,0.04,,,0.42,WUHU216HW,2013-07-09 23:52:00,
2013-07-09 19:57:00,74.2,14.2,29.93,North,0,0.0,0.0,1,0.03,,,0.42,WUHU216HW,2013-07-09 23:57:00,
2013-07-09 20:02:00,74.2,14.2,29.94,North,0,0.0,0.0,1,0.03,,,0.42,WUHU216HW,2013-07-10 00:02:00,
2013-07-09 20:07:00,74.2,14.2,29.95,North,0,0.0,0.0,1,0.03,,,0.42,WUHU216HW,2013-07-10 00:07:00,
2013-07-09 20:12:00,74.2,14.2,29.94,North,0,0.0,0.0,1,0.02,,,0.42,WUHU216HW,2013-07-10 00:12:00,
2013-07-09 20:17:00,74.2,14.2,29.94,North,0,0.0,0.0,1,0.01,,,0.42,WUHU216HW,2013-07-10 00:17:00,
2013-07-09 20:22:00,74.2,14.2,29.94,North,0,0.0,0.0,1,0.01,,,0.42,WUHU216HW,2013-07-10 00:22:00,
2013-07-09 20:27:00,74.2,14.2,29.94,North,0,0.0,0.0,1,0.01,,,0.42,WUHU216HW,2013-07-10 00:27:00,
2013-07-09 20:32:00,74.0,14.0,29.94,North,0,0.0,0.0,1,0.00,,,0.42,WUHU216HW,2013-07-10 00:32:00,
2013-07-09 20:37:00,74.0,14.0,29.94,North,0,0.0,0.0,1,0.00,,,0.42,WUHU216HW,2013-07-10 00:37:00,
2013-07-09 20:42:00,74.0,14.0,29.94,North,0,0.0,0.0,1,0.00,,,0.42,WUHU216HW,2013-07-10 00:42:00,
2013-07-09 20:47:00,74.0,14.0,29.94,North,0,0.0,0.0,1,0.00,,,0.42,WUHU216HW,2013-07-10 00:47:00,
2013-07-09 20:52:00,74.0,14.0,29.95,North,0,0.0,0.0,1,0.00,,,0.42,WUHU216HW,2013-07-10 00:52:00,
2013-07-09 20:57:00,73.8,14.0,29.95,North,0,0.0,0.0,1,0.00,,,0.42,WUHU216HW,2013-07-10 00:57:00,
2013-07-09 21:02:00,73.8,14.0,29.95,North,0,0.0,0.0,1,0.00,,,0.42,WUHU216HW,2013-07-10 01:02:00,
2013-07-09 21:07:00,73.8,14.0,29.95,North,0,0.0,0.0,1,0.00,,,0.42,WUHU216HW,2013-07-10 01:07:00,
2013-07-09 21:12:00,73.8,14.0,29.95,North,0,0.0,0.0,1,0.00,,,0.42,WUHU216HW,2013-07-10 01:12:00,
2013-07-09 21:17:00,73.8,14.0,29.95,North,0,0.0,0.0,1,0.00,,,0.42,WUHU216HW,2013-07-10 01:17:00,
2013-07-09 21:22:00,73.6,13.8,29.96,North,0,0.0,0.0,1,0.00,,,0.42,WUHU216HW,2013-07-10 01:22:00,
2013-07-09 21:27:00,73.6,13.8,29.96,North,0,0.0,0.0,1,0.00,,,0.42,WUHU216HW,2013-07-10 01:27:00,
2013-07-09 21:32:00,73.6,13.8,29.96,North,0,0.0,0.0,1,0.00,,,0.42,WUHU216HW,2013-07-10 01:32:00,
2013-07-09 21:37:00,73.4,13.7,29.96,North,0,0.0,0.0,1,0.00,,,0.42,WUHU216HW,2013-07-10 01:37:00,
2013-07-09 21:42:00,73.4,13.7,29.96,North,0,0.0,0.0,1,0.00,,,0.42,WUHU216HW,2013-07-10 01:42:00,
2013-07-09 21:47:00,73.4,13.7,29.96,North,0,0.0,0.0,1,0.00,,,0.42,WUHU216HW,2013-07-10 01:47:00,
2013-07-09 21:52:00,73.4,13.7,29.96,North,0,0.0,0.0,1,0.00,,,0.42,WUHU216HW,2013-07-10 01:52:00,
2013-07-09 21:57:00,73.4,13.7,29.96,North,0,0.0,0.0,1,0.00,,,0.42,WUHU216HW,2013-07-10 01:57:00,
2013-07-09 22:02:00,73.4,13.7,29.96,North,0,0.0,0.0,1,0.00,,,0.42,WUHU216HW,2013-07-10 02:02:00,
2013-07-09 22:07:00,73.4,13.7,29.96,North,0,0.0,0.0,1,0.00,,,0.42,WUHU216HW,2013-07-10 02:07:00,
2013-07-09 22:12:00,73.4,13.7,29.96,North,0,0.0,0.0,1,0.00,,,0.42,WUHU216HW,2013-07-10 02:12:00,
2013-07-09 22:17:00,73.4,13.7,29.96,North,0,0.0,0.0,1,0.00,,,0.42,WUHU216HW,2013-07-10 02:17:00,
2013-07-09 22:22:00,73.4,13.7,29.96,North,0,0.0,0.0,1,0.00,,,0.42,WUHU216HW,2013-07-10 02:22:00,
2013-07-09 22:27:00,73.4,13.7,29.96,North,0,0.0,0.0,1,0.00,,,0.42,WUHU216HW,2013-07-10 02:27:00,
2013-07-09 22:32:00,73.4,13.7,29.96,North,0,0.0,0.0,1,0.00,,,0.42,WUHU216HW,2013-07-10 02:32:00,
2013-07-09 22:37:00,73.3,13.5,29.96,North,0,0.0,0.0,1,0.00,,,0.42,WUHU216HW,2013-07-10 02:37:00,
2013-07-09 22:42:00,73.4,13.7,29.96,North,0,0.0,0.0,1,0.00,,,0.42,WUHU216HW,2013-07-10 02:42:00,
2013-07-09 22:47:00,73.3,13.5,29.96,North,0,0.0,0.0,1,0.00,,,0.42,WUHU216HW,2013-07-10 02:47:00,
2013-07-09 22:52:00,73.4,13.7,29.96,North,0,0.0,0.0,1,0.00,,,0.42,WUHU216HW,2013-07-10 02:52:00,
2013-07-09 22:57:00,73.4,13.7,29.95,North,0,0.0,0.0,1,0.00,,,0.42,WUHU216HW,2013-07-10 02:57:00,
2013-07-09 23:02:00,73.3,13.5,29.95,North,0,0.0,0.0,1,0.00,,,0.42,WUHU216HW,2013-07-10 03:02:00,
2013-07-09 23:07:00,73.4,13.7,29.95,North,0,0.0,0.0,1,0.00,,,0.42,WUHU216HW,2013-07-10 03:07:00,
2013-07-09 23:12:00,73.4,13.7,29.95,North,0,0.0,0.0,1,0.00,,,0.42,WUHU216HW,2013-07-10 03:12:00,
2013-07-09 23:17:00,73.3,13.5,29.94,North,0,0.0,0.0,1,0.00,,,0.42,WUHU216HW,2013-07-10 03:17:00,
2013-07-09 23:22:00,73.3,13.5,29.94,North,0,0.0,0.0,1,0.00,,,0.42,WUHU216HW,2013-07-10 03:22:00,
2013-07-09 23:27:00,73.3,13.5,29.93,North,0,0.0,0.0,1,0.00,,,0.42,WUHU216HW,2013-07-10 03:27:00,
2013-07-09 23:32:00,73.3,13.5,29.93,North,0,0.0,0.0,1,0.00,,,0.42,WUHU216HW,2013-07-10 03:32:00,
2013-07-09 23:37:00,73.3,13.5,29.93,North,0,0.0,0.0,1,0.00,,,0.42,WUHU216HW,2013-07-10 03:37:00,
2013-07-09 23:42:00,73.3,13.5,29.93,North,0,0.0,0.0,1,0.00,,,0.42,WUHU216HW,2013-07-10 03:42:00,
2013-07-09 23:47:00,73.3,13.5,29.93,North,0,0.0,0.0,1,0.00,,,0.42,WUHU216HW,2013-07-10 03:47:00,
2013-07-09 23:52:00,73.1,13.4,29.93,North,0,0.0,0.0,1,0.00,,,0.42,WUHU216HW,2013-07-10 03:52:00,
2013-07-09 23:57:00,73.1,13.4,29.93,North,0,0.0,0.0,1,0.00,,,0.42,WUHU216HW,2013-07-10 03:57:00,